createdAt,value
2018-08-16T00:01:39.770Z,83.10
2018-08-16T00:06:43.130Z,83.30
2018-08-16T00:11:46.618Z,85.20
2018-08-16T00:16:49.948Z,88.00
2018-08-16T00:21:53.308Z,88.50
2018-08-16T00:26:57.007Z,85.20
2018-08-16T00:32:00.546Z,85.80
2018-08-16T00:37:04.116Z,83.80
2018-08-16T00:42:07.485Z,88.90
2018-08-16T00:47:10.833Z,88.20
2018-08-16T00:52:14.177Z,88.80
2018-08-16T00:57:17.641Z,89.00
2018-08-16T01:02:21.117Z,87.70
2018-08-16T01:07:24.524Z,86.40
2018-08-16T01:12:28.697Z,85.40
2018-08-16T01:17:32.002Z,86.00
2018-08-16T01:22:35.421Z,86.50
2018-08-16T01:27:38.973Z,86.30
2018-08-16T01:32:42.306Z,86.60
2018-08-16T01:37:45.767Z,87.20
2018-08-16T01:42:49.257Z,88.40
2018-08-16T01:47:53.406Z,90.20
2018-08-16T01:52:56.921Z,87.70
2018-08-16T01:58:00.401Z,90.10
2018-08-16T02:03:04.554Z,90.60
2018-08-16T02:08:08.469Z,87.60
2018-08-16T02:13:12.022Z,88.40
2018-08-16T02:18:16.007Z,87.80
2018-08-16T02:23:19.446Z,88.70
2018-08-16T02:28:22.909Z,89.40
2018-08-16T02:33:26.326Z,89.50
2018-08-16T02:38:29.545Z,90.00
2018-08-16T02:43:32.965Z,90.10
2018-08-16T02:48:36.245Z,90.40
2018-08-16T02:53:39.557Z,89.70
2018-08-16T02:58:43.007Z,90.30
2018-08-16T03:03:46.290Z,90.60
2018-08-16T03:08:49.553Z,90.10
2018-08-16T03:18:56.050Z,91.70
2018-08-16T03:23:59.364Z,92.00
2018-08-16T03:29:02.788Z,91.60
2018-08-16T03:34:06.230Z,91.20
2018-08-16T03:39:09.832Z,90.70
2018-08-16T03:44:13.277Z,91.00
2018-08-16T03:49:16.585Z,91.00
2018-08-16T03:54:19.922Z,91.30
2018-08-16T03:59:23.386Z,91.20
2018-08-16T04:04:26.873Z,91.10
2018-08-16T04:09:30.153Z,91.10
2018-08-16T04:14:33.436Z,91.00
2018-08-16T04:19:36.830Z,91.00
2018-08-16T04:24:40.273Z,91.80
2018-08-16T04:29:43.776Z,91.30
2018-08-16T04:34:47.046Z,91.40
2018-08-16T04:39:51.362Z,91.80
2018-08-16T04:44:54.784Z,91.70
2018-08-16T04:49:58.050Z,91.70
2018-08-16T04:55:01.474Z,91.60
2018-08-16T05:00:05.712Z,91.80
2018-08-16T05:05:09.297Z,91.90
2018-08-16T05:10:12.573Z,91.70
2018-08-16T05:15:15.874Z,91.70
2018-08-16T05:20:19.193Z,92.20
2018-08-16T05:25:22.501Z,91.60
2018-08-16T05:30:25.957Z,91.40
2018-08-16T05:35:29.233Z,91.70
2018-08-16T05:40:32.685Z,91.30
2018-08-16T05:45:36.015Z,91.50
2018-08-16T05:50:39.439Z,91.00
2018-08-16T05:55:42.808Z,91.00
2018-08-16T06:00:46.251Z,91.00
2018-08-16T06:05:49.553Z,90.70
2018-08-16T06:10:53.233Z,90.40
2018-08-16T06:15:56.608Z,90.80
2018-08-16T06:20:59.914Z,90.00
2018-08-16T06:26:03.378Z,89.80
2018-08-16T06:31:06.808Z,89.60
2018-08-16T06:36:10.154Z,89.70
2018-08-16T06:41:13.601Z,88.60
2018-08-16T06:46:17.438Z,87.90
2018-08-16T06:51:21.616Z,87.30
2018-08-16T06:56:24.933Z,86.80
2018-08-16T07:01:28.407Z,85.70
2018-08-16T07:06:31.704Z,84.80
2018-08-16T07:11:35.091Z,84.50
2018-08-16T07:16:38.541Z,83.80
2018-08-16T07:21:41.808Z,83.10
2018-08-16T07:26:45.236Z,83.10
2018-08-16T07:31:48.573Z,81.80
2018-08-16T07:36:52.064Z,81.10
2018-08-16T07:41:55.984Z,80.80
2018-08-16T07:46:59.423Z,79.40
2018-08-16T07:52:02.776Z,78.00
2018-08-16T07:57:06.170Z,78.00
2018-08-16T08:02:09.523Z,78.00
2018-08-16T08:07:12.833Z,79.30
2018-08-16T08:17:20.311Z,73.20
2018-08-16T08:22:23.853Z,72.70
2018-08-16T08:27:27.143Z,70.50
2018-08-16T08:32:30.546Z,70.70
2018-08-16T08:37:44.984Z,71.40
2018-08-16T08:42:48.479Z,70.80
2018-08-16T08:47:55.669Z,70.30
2018-08-16T08:53:10.139Z,69.70
2018-08-16T08:58:24.788Z,68.00
2018-08-16T09:03:28.225Z,67.70
2018-08-16T09:08:31.572Z,66.80
2018-08-16T09:13:46.362Z,66.90
2018-08-16T09:18:49.784Z,65.20
2018-08-16T09:23:53.145Z,65.10
2018-08-16T09:28:56.644Z,61.80
2018-08-16T09:34:11.329Z,60.50
2018-08-16T09:39:14.824Z,61.20
2018-08-16T09:44:18.054Z,59.90
2018-08-16T09:49:21.548Z,58.00
2018-08-16T09:54:25.012Z,56.70
2018-08-16T09:59:28.309Z,58.70
2018-08-16T10:04:31.709Z,57.30
2018-08-16T10:09:35.069Z,57.10
2018-08-16T10:14:38.400Z,56.50
2018-08-16T10:19:41.934Z,57.90
2018-08-16T10:24:45.217Z,56.60
2018-08-16T10:29:48.581Z,56.60
2018-08-16T10:34:51.848Z,55.30
2018-08-16T10:39:55.264Z,55.00
2018-08-16T10:44:58.665Z,55.40
2018-08-16T10:50:01.955Z,55.80
2018-08-16T11:00:16.886Z,54.40
2018-08-16T11:05:21.118Z,52.80
2018-08-16T11:10:24.871Z,51.70
2018-08-16T11:15:28.241Z,51.90
2018-08-16T11:20:31.521Z,51.80
2018-08-16T11:30:38.337Z,51.40
2018-08-16T11:35:41.724Z,52.00
2018-08-16T11:40:45.162Z,51.30
2018-08-16T11:45:48.406Z,50.00
2018-08-16T11:50:51.842Z,48.40
2018-08-16T11:55:55.308Z,50.10
2018-08-16T12:00:58.649Z,50.90
2018-08-16T12:06:02.093Z,49.80
2018-08-16T12:11:05.529Z,50.60
2018-08-16T12:21:11.952Z,48.30
2018-08-16T12:26:15.236Z,49.00
2018-08-16T12:31:18.593Z,48.90
2018-08-16T12:36:21.855Z,47.80
2018-08-16T12:41:25.205Z,47.60
2018-08-16T12:46:28.514Z,48.70
2018-08-16T12:51:31.903Z,47.60
2018-08-16T12:56:35.325Z,47.60
2018-08-16T13:01:39.525Z,47.10
2018-08-16T13:06:43.520Z,48.10
2018-08-16T13:11:47.276Z,47.50
2018-08-16T13:16:51.058Z,47.30
2018-08-16T13:21:54.478Z,46.80
2018-08-16T13:26:57.765Z,46.80
2018-08-16T13:32:01.954Z,45.60
2018-08-16T13:37:06.378Z,44.30
2018-08-16T13:42:10.481Z,43.50
2018-08-16T13:47:14.196Z,43.20
2018-08-16T13:52:17.761Z,43.00
2018-08-16T13:57:21.234Z,44.40
2018-08-16T14:02:24.784Z,43.20
2018-08-16T14:07:28.217Z,43.70
2018-08-16T14:17:34.733Z,43.10
2018-08-16T14:22:38.172Z,42.80
2018-08-16T14:27:41.573Z,42.50
2018-08-16T14:32:45.105Z,42.00
2018-08-16T14:37:48.605Z,41.50
2018-08-16T14:42:52.184Z,41.50
2018-08-16T14:47:55.634Z,39.90
2018-08-16T14:52:59.019Z,39.50
2018-08-16T14:58:02.565Z,39.50
2018-08-16T15:03:06.055Z,40.20
2018-08-16T15:08:09.613Z,38.60
2018-08-16T15:13:13.172Z,41.60
2018-08-16T15:18:16.634Z,41.50
2018-08-16T15:23:20.265Z,40.30
2018-08-16T15:28:23.691Z,40.40
2018-08-16T15:33:27.127Z,41.10
2018-08-16T15:38:30.520Z,42.00
2018-08-16T15:43:34.924Z,42.50
2018-08-16T15:48:38.350Z,42.70
2018-08-16T15:53:41.777Z,42.70
2018-08-16T15:58:45.133Z,42.80
2018-08-16T16:03:48.408Z,43.50
2018-08-16T16:08:55.868Z,43.60
2018-08-16T16:13:59.229Z,43.40
2018-08-16T16:19:13.540Z,44.40
2018-08-16T16:24:16.858Z,45.00
2018-08-16T16:29:20.219Z,43.80
2018-08-16T16:34:23.500Z,44.10
2018-08-16T16:39:26.788Z,44.80
2018-08-16T16:44:30.121Z,44.60
2018-08-16T16:49:33.405Z,45.80
2018-08-16T16:54:36.864Z,46.70
2018-08-16T17:04:43.175Z,48.00
2018-08-16T17:09:46.459Z,47.20
2018-08-16T17:14:49.779Z,47.10
2018-08-16T17:19:53.197Z,48.50
2018-08-16T17:24:56.537Z,49.80
2018-08-16T17:29:59.829Z,51.50
2018-08-16T17:35:03.286Z,51.00
2018-08-16T17:40:06.652Z,51.00
2018-08-16T17:45:10.180Z,50.20
2018-08-16T17:50:13.947Z,49.40
2018-08-16T17:55:17.428Z,50.80
2018-08-16T18:00:20.821Z,51.90
2018-08-16T18:05:24.105Z,54.50
2018-08-16T18:10:27.624Z,54.10
2018-08-16T18:15:31.077Z,53.80
2018-08-16T18:20:34.377Z,55.90
2018-08-16T18:25:37.733Z,55.80
2018-08-16T18:30:41.076Z,56.80
2018-08-16T18:35:44.469Z,57.50
2018-08-16T18:40:47.765Z,57.70
2018-08-16T18:45:51.132Z,57.50
2018-08-16T18:50:54.442Z,59.20
2018-08-16T18:55:57.860Z,60.40
2018-08-16T19:01:01.314Z,61.80
2018-08-16T19:06:04.817Z,61.40
2018-08-16T19:11:08.128Z,60.80
2018-08-16T19:16:11.408Z,59.40
2018-08-16T19:21:14.847Z,60.00
2018-08-16T19:26:18.324Z,58.90
2018-08-16T19:31:21.614Z,59.40
2018-08-16T19:36:24.938Z,59.90
2018-08-16T19:41:28.469Z,60.10
2018-08-16T19:46:31.734Z,61.10
2018-08-16T19:51:35.400Z,63.30
2018-08-16T19:56:38.957Z,63.80
2018-08-16T20:01:42.283Z,64.40
2018-08-16T20:06:45.672Z,63.90
2018-08-16T20:11:48.961Z,64.40
2018-08-16T20:16:52.352Z,64.30
2018-08-16T20:21:55.647Z,65.00
2018-08-16T20:26:58.928Z,65.10
2018-08-16T20:32:02.445Z,66.40
2018-08-16T20:37:05.884Z,67.10
2018-08-16T20:42:09.551Z,67.00
2018-08-16T20:47:12.872Z,67.50
2018-08-16T20:52:16.374Z,67.70
2018-08-16T20:57:19.740Z,69.00
2018-08-16T21:02:23.029Z,69.50
2018-08-16T21:07:27.406Z,70.90
2018-08-16T21:12:30.745Z,69.70
2018-08-16T21:17:34.013Z,69.50
2018-08-16T21:22:37.349Z,70.00
2018-08-16T21:27:40.859Z,69.50
2018-08-16T21:32:44.168Z,70.60
2018-08-16T21:37:47.454Z,71.60
2018-08-16T21:42:50.713Z,70.60
2018-08-16T21:47:54.133Z,71.30
2018-08-16T21:52:57.406Z,72.00
2018-08-16T21:58:00.741Z,70.70
2018-08-16T22:03:04.165Z,72.20
2018-08-16T22:08:13.200Z,72.20
2018-08-16T22:13:16.630Z,72.70
2018-08-16T22:18:20.019Z,73.40
2018-08-16T22:23:23.288Z,72.90
2018-08-16T22:28:26.860Z,72.90
2018-08-16T22:33:30.653Z,73.00
2018-08-16T22:38:33.985Z,73.30
2018-08-16T22:43:37.271Z,73.20
2018-08-16T22:48:40.548Z,73.40
2018-08-16T22:53:44.107Z,74.00
2018-08-16T22:58:47.416Z,74.20
2018-08-16T23:03:50.701Z,74.90
2018-08-16T23:08:54.076Z,74.20
2018-08-16T23:13:57.407Z,74.80
2018-08-16T23:19:00.711Z,74.30
2018-08-16T23:24:04.229Z,75.70
2018-08-16T23:29:07.580Z,77.10
2018-08-16T23:34:10.928Z,76.70
2018-08-16T23:39:14.245Z,78.60
2018-08-16T23:44:17.586Z,79.30
2018-08-16T23:49:20.859Z,77.20
2018-08-16T23:54:24.309Z,77.00
2018-08-16T23:59:27.591Z,78.10
